Time;durP1;ratioP1;P1;durP2;ratioP2;P2;SDS_P1;SDS_P2;PMS_P1;PMS_P2;Temp;Humidity;BMP_temperature;BMP_pressure;BME280_temperature;BME280_humidity;BME280_pressure;Samples;Min_cycle;Max_cycle;Signal;HPM_P1;HPM_P2
2022/07/28 00:04:31;;;;;;;2.42;2.05;;;;;;;19.94;45.67;95764.03;10278350;28;97793;-62
2022/07/28 00:09:34;;;;;;;2.45;1.90;;;;;;;19.75;47.07;95759.69;10295083;28;97815;-62
2022/07/28 00:14:38;;;;;;;2.53;2.00;;;;;;;19.61;47.15;95751.84;10274705;28;97090;-63
2022/07/28 00:19:41;;;;;;;3.15;2.22;;;;;;;19.51;47.12;95746.22;10281918;28;96946;-62
2022/07/28 00:24:44;;;;;;;3.67;2.30;;;;;;;19.32;48.26;95752.47;10282239;28;98134;-62
2022/07/28 00:29:52;;;;;;;3.85;1.77;;;;;;;19.17;48.79;95750.91;10283222;28;98652;-61
2022/07/28 00:34:54;;;;;;;2.70;2.20;;;;;;;19.14;49.33;95740.78;10274411;28;99001;-62
2022/07/28 00:39:57;;;;;;;3.55;2.13;;;;;;;19.10;49.44;95750.16;10276974;28;98269;-61
2022/07/28 00:45:01;;;;;;;2.40;2.05;;;;;;;18.98;49.55;95750.00;10277460;28;98402;-63
2022/07/28 00:50:05;;;;;;;4.13;2.20;;;;;;;18.75;50.01;95747.06;10274763;28;96923;-63
2022/07/28 00:55:09;;;;;;;4.43;2.53;;;;;;;18.63;51.15;95749.56;10278407;28;97717;-65
2022/07/28 01:00:14;;;;;;;2.83;2.30;;;;;;;18.42;51.00;95743.53;10285451;28;97727;-61
2022/07/28 01:05:18;;;;;;;3.28;2.15;;;;;;;18.28;51.38;95749.88;10274805;28;98471;-62
2022/07/28 01:10:46;;;;;;;4.45;2.10;;;;;;;18.27;51.09;95750.91;10280273;28;98301;-62
2022/07/28 01:15:57;;;;;;;2.60;1.83;;;;;;;18.26;50.26;95741.34;10284565;28;96885;-62
2022/07/28 01:21:04;;;;;;;3.13;2.58;;;;;;;18.07;52.02;95738.53;10276783;28;98312;-64
2022/07/28 01:26:36;;;;;;;3.35;2.10;;;;;;;17.80;53.35;95737.75;10279888;28;97567;-62
2022/07/28 01:31:43;;;;;;;2.83;2.15;;;;;;;17.65;53.85;95737.97;10276821;28;97535;-61
2022/07/28 01:36:52;;;;;;;7.70;2.58;;;;;;;17.62;54.09;95743.66;10286763;28;99024;-62
2022/07/28 01:41:57;;;;;;;2.80;2.10;;;;;;;17.56;53.98;95739.19;10286352;28;99433;-61
2022/07/28 01:47:06;;;;;;;4.70;2.17;;;;;;;17.49;54.53;95738.38;10286384;28;97005;-65
2022/07/28 01:52:09;;;;;;;3.13;2.58;;;;;;;17.50;54.37;95751.38;10285991;28;96986;-62
2022/07/28 01:57:14;;;;;;;4.10;2.10;;;;;;;17.56;54.52;95744.47;10279038;28;97791;-65
2022/07/28 02:02:20;;;;;;;2.80;2.22;;;;;;;17.58;53.82;95737.16;10283087;28;98463;-63
2022/07/28 02:07:24;;;;;;;3.15;2.00;;;;;;;17.62;54.11;95732.28;10288224;28;98426;-61
2022/07/28 02:12:28;;;;;;;4.73;2.20;;;;;;;17.61;53.77;95734.09;10283508;28;97701;-62
2022/07/28 02:17:34;;;;;;;2.85;2.58;;;;;;;17.39;55.07;95722.94;10282923;28;97631;-63
2022/07/28 02:22:38;;;;;;;4.65;2.20;;;;;;;17.31;54.50;95726.59;10292870;28;97558;-61
2022/07/28 02:27:46;;;;;;;2.28;1.98;;;;;;;17.26;54.71;95729.03;10286660;28;97059;-61
2022/07/28 02:32:53;;;;;;;3.97;2.50;;;;;;;17.26;54.48;95734.28;10284050;28;96910;-62
2022/07/28 02:38:01;;;;;;;3.95;2.20;;;;;;;17.32;54.66;95725.59;10298412;28;97224;-62
2022/07/28 02:43:08;;;;;;;3.38;2.30;;;;;;;17.31;54.34;95731.88;10292960;28;96926;-62
2022/07/28 02:48:17;;;;;;;4.35;2.30;;;;;;;17.28;54.41;95736.75;10288570;28;98316;-61
2022/07/28 02:53:22;;;;;;;2.30;2.03;;;;;;;17.26;54.24;95738.78;10288398;28;98570;-61
2022/07/28 02:58:28;;;;;;;3.90;2.45;;;;;;;17.23;54.07;95745.28;10284757;28;99615;-61
2022/07/28 03:03:34;;;;;;;2.60;2.20;;;;;;;17.04;54.86;95752.16;10283212;28;97143;-62
2022/07/28 03:08:37;;;;;;;2.40;2.10;;;;;;;16.95;55.33;95748.91;10287460;28;96821;-65
2022/07/28 03:13:40;;;;;;;3.28;2.17;;;;;;;16.80;55.64;95761.44;10283423;28;97125;-62
2022/07/28 03:18:44;;;;;;;3.17;2.20;;;;;;;16.56;56.21;95755.63;10289756;28;99053;-61
2022/07/28 03:23:50;;;;;;;4.43;2.20;;;;;;;16.47;56.52;95766.53;10291302;28;98435;-61
2022/07/28 03:28:55;;;;;;;4.22;2.50;;;;;;;16.45;56.93;95769.38;10280167;28;97773;-61
2022/07/28 03:33:59;;;;;;;4.18;2.28;;;;;;;16.33;57.61;95763.84;10285618;28;97713;-61
2022/07/28 03:39:07;;;;;;;2.60;2.13;;;;;;;16.25;57.19;95771.91;10282443;28;97136;-61
2022/07/28 03:44:12;;;;;;;2.63;2.40;;;;;;;16.28;57.16;95776.78;10276172;28;98340;-60
2022/07/28 03:49:16;;;;;;;5.47;2.60;;;;;;;16.35;57.19;95776.84;10293897;28;97009;-61
2022/07/28 03:54:19;;;;;;;5.18;2.42;;;;;;;16.35;57.01;95779.47;10294221;28;98441;-61
2022/07/28 03:59:22;;;;;;;4.60;2.40;;;;;;;16.28;57.43;95776.78;10309016;28;98905;-62
2022/07/28 04:04:26;;;;;;;4.32;2.60;;;;;;;16.27;58.71;95782.25;10314213;28;96881;-61
2022/07/28 04:09:29;;;;;;;9.60;2.60;;;;;;;16.13;58.38;95776.91;10289154;28;97016;-61
2022/07/28 04:14:32;;;;;;;5.95;2.58;;;;;;;16.12;57.92;95780.56;10298659;28;96836;-62
2022/07/28 04:19:37;;;;;;;3.00;2.25;;;;;;;16.15;57.70;95779.34;10294339;28;97931;-60
2022/07/28 04:24:39;;;;;;;3.80;2.30;;;;;;;16.19;57.07;95786.69;10300686;28;97824;-60
2022/07/28 04:29:42;;;;;;;3.47;2.30;;;;;;;16.27;56.91;95782.25;10291234;28;96948;-61
2022/07/28 04:34:47;;;;;;;7.90;2.88;;;;;;;16.33;57.00;95784.94;10282805;28;98421;-63
2022/07/28 04:39:50;;;;;;;6.85;2.88;;;;;;;16.31;57.78;95784.31;10295204;28;98136;-63
2022/07/28 04:44:53;;;;;;;5.15;2.63;;;;;;;16.32;58.08;95791.19;10296698;28;96761;-63
2022/07/28 04:49:58;;;;;;;4.85;2.60;;;;;;;16.41;57.86;95800.56;10303642;28;97360;-62
2022/07/28 04:55:01;;;;;;;5.57;2.40;;;;;;;16.41;57.12;95800.56;10278955;28;99009;-64
2022/07/28 05:00:10;;;;;;;6.55;2.50;;;;;;;16.43;56.25;95797.75;10291665;28;98132;-62
2022/07/28 05:05:16;;;;;;;5.32;2.60;;;;;;;16.53;57.19;95803.47;10295865;28;96890;-63
2022/07/28 05:10:19;;;;;;;3.28;2.60;;;;;;;16.58;57.95;95801.06;10300876;28;99074;-62
2022/07/28 05:15:22;;;;;;;5.75;2.88;;;;;;;16.63;58.36;95800.47;10298830;28;98705;-63
2022/07/28 05:20:26;;;;;;;2.65;2.40;;;;;;;16.73;57.91;95797.50;10301290;28;96935;-62
2022/07/28 05:25:29;;;;;;;7.50;2.70;;;;;;;16.84;57.48;95802.22;10295449;28;98551;-64
2022/07/28 05:30:32;;;;;;;4.10;2.60;;;;;;;17.03;57.43;95791.94;10280667;28;98444;-64
2022/07/28 05:35:36;;;;;;;5.20;2.40;;;;;;;17.18;56.19;95796.03;10288754;28;98762;-65
2022/07/28 05:40:39;;;;;;;6.60;2.97;;;;;;;17.37;55.75;95796.28;10294655;28;97111;-65
2022/07/28 05:45:42;;;;;;;4.10;2.75;;;;;;;17.36;56.17;95797.28;10300148;28;97144;-65
2022/07/28 05:50:47;;;;;;;5.28;2.40;;;;;;;17.49;55.31;95793.81;10292325;28;96950;-65
2022/07/28 05:55:50;;;;;;;3.92;2.95;;;;;;;17.56;56.60;95795.47;10296158;28;96992;-65
2022/07/28 06:01:03;;;;;;;4.70;2.88;;;;;;;17.61;56.11;95800.13;10295802;28;97095;-65
2022/07/28 06:06:08;;;;;;;4.45;2.40;;;;;;;17.68;56.20;95805.41;10293714;28;97243;-65
2022/07/28 06:11:18;;;;;;;5.15;3.40;;;;;;;17.74;56.31;95805.44;10295208;28;96925;-65
2022/07/28 06:16:24;;;;;;;4.00;2.72;;;;;;;17.86;56.62;95808.31;10300579;28;98407;-65
2022/07/28 06:21:29;;;;;;;4.20;2.50;;;;;;;17.96;55.46;95805.25;10301893;28;97327;-65
2022/07/28 06:26:31;;;;;;;4.75;2.70;;;;;;;18.06;55.50;95807.47;10295955;28;97033;-65
2022/07/28 06:31:35;;;;;;;5.47;2.50;;;;;;;18.25;54.72;95817.19;10293567;28;96943;-65
2022/07/28 06:36:39;;;;;;;4.57;2.22;;;;;;;18.41;54.60;95815.13;10301840;28;96866;-65
2022/07/28 06:41:43;;;;;;;4.00;2.72;;;;;;;18.66;54.76;95812.63;10327978;28;97733;-65
2022/07/28 06:46:46;;;;;;;4.57;2.25;;;;;;;18.90;54.20;95811.16;10318002;28;97321;-65
2022/07/28 06:51:50;;;;;;;3.45;2.70;;;;;;;19.11;53.97;95815.31;10321917;28;97036;-65
2022/07/28 06:56:53;;;;;;;5.32;2.38;;;;;;;19.36;53.89;95817.22;10304369;28;96749;-65
2022/07/28 07:02:00;;;;;;;3.92;2.42;;;;;;;19.52;53.67;95806.13;10308361;28;96767;-65
2022/07/28 07:07:04;;;;;;;3.40;2.47;;;;;;;19.77;53.86;95813.28;10302432;28;96864;-65
2022/07/28 07:12:18;;;;;;;4.65;2.55;;;;;;;19.94;53.01;95821.50;10300094;28;96843;-65
2022/07/28 07:17:21;;;;;;;4.35;2.50;;;;;;;19.99;52.17;95827.81;10300631;28;97478;-65
2022/07/28 07:22:25;;;;;;;3.22;2.72;;;;;;;20.10;52.13;95817.53;10300555;28;98367;-65
2022/07/28 07:27:28;;;;;;;4.18;2.17;;;;;;;20.22;51.72;95812.28;10287834;28;96883;-65
2022/07/28 07:32:31;;;;;;;3.13;2.35;;;;;;;20.42;51.53;95812.09;10286142;28;96832;-66
2022/07/28 07:37:36;;;;;;;3.42;2.50;;;;;;;20.57;50.64;95808.06;10298367;28;97040;-65
2022/07/28 07:42:39;;;;;;;5.60;2.60;;;;;;;20.69;50.44;95800.16;10298054;28;97019;-65
2022/07/28 07:47:42;;;;;;;3.53;2.42;;;;;;;20.79;50.72;95809.47;10297521;28;96951;-65
2022/07/28 07:52:48;;;;;;;3.90;2.53;;;;;;;20.79;50.91;95809.47;10297456;28;96962;-65
2022/07/28 07:57:51;;;;;;;4.10;2.50;;;;;;;20.93;50.30;95806.44;10297487;28;97263;-65
2022/07/28 08:02:54;;;;;;;4.55;2.47;;;;;;;20.96;50.21;95807.84;10297594;28;97060;-65
2022/07/28 08:07:58;;;;;;;3.75;2.65;;;;;;;21.16;49.96;95801.47;10297090;28;97615;-65
2022/07/28 08:13:02;;;;;;;2.83;2.55;;;;;;;21.10;49.78;95804.00;10296949;28;96949;-65
2022/07/28 08:18:05;;;;;;;3.25;2.60;;;;;;;21.28;49.72;95794.34;10296472;28;98042;-65
2022/07/28 08:23:09;;;;;;;2.88;2.25;;;;;;;21.36;49.52;95801.97;10300982;28;97074;-65
2022/07/28 08:28:12;;;;;;;6.65;2.60;;;;;;;21.53;48.82;95798.69;10294095;28;96769;-65
2022/07/28 08:33:20;;;;;;;7.10;2.75;;;;;;;21.69;48.47;95798.88;10296517;28;96764;-65
2022/07/28 08:38:24;;;;;;;3.92;2.30;;;;;;;21.87;48.20;95787.34;10296475;28;96839;-65
2022/07/28 08:43:33;;;;;;;6.57;2.90;;;;;;;21.97;47.84;95788.59;10294648;28;97117;-65
2022/07/28 08:48:37;;;;;;;5.45;2.75;;;;;;;22.04;47.50;95786.66;10293054;28;97487;-66
2022/07/28 08:53:43;;;;;;;4.68;2.60;;;;;;;22.15;47.28;95783.19;10295844;28;96829;-65
2022/07/28 08:58:46;;;;;;;4.40;2.60;;;;;;;22.36;47.28;95786.31;10295610;28;96845;-65
2022/07/28 09:03:50;;;;;;;6.03;2.67;;;;;;;22.44;47.15;95783.28;10265515;28;100532;-65
2022/07/28 09:08:54;;;;;;;;;;;;;;;22.55;46.85;95774.50;10215475;28;97352;-65
2022/07/28 09:13:57;;;;;;;3.40;2.50;;;;;;;22.67;46.75;95776.34;10214170;28;97066;-65
2022/07/28 09:19:00;;;;;;;3.88;2.38;;;;;;;22.95;46.57;95767.56;10214451;28;97048;-65
2022/07/28 09:24:05;;;;;;;4.70;2.60;;;;;;;23.15;45.57;95767.09;10217951;28;97247;-65
2022/07/28 09:29:08;;;;;;;4.63;2.50;;;;;;;23.32;45.55;95773.31;10210959;28;96786;-65
2022/07/28 09:34:11;;;;;;;7.75;2.80;;;;;;;23.25;45.71;95771.81;10213687;28;96757;-65
2022/07/28 09:39:31;;;;;;;4.87;2.87;;;;;;;23.23;45.38;95768.59;10211739;28;96961;-65
2022/07/28 09:44:34;;;;;;;3.78;2.60;;;;;;;23.34;45.26;95754.41;10202223;28;97278;-65
2022/07/28 09:49:41;;;;;;;6.35;2.50;;;;;;;23.61;45.06;95759.94;10213743;28;96808;-65
2022/07/28 09:54:59;;;;;;;5.68;2.55;;;;;;;23.79;44.16;95750.09;10212089;28;98631;-65
2022/07/28 10:00:05;;;;;;;3.67;2.47;;;;;;;23.91;43.89;95754.31;10220183;28;97791;-65
2022/07/28 10:05:11;;;;;;;2.92;2.55;;;;;;;23.92;43.53;95741.75;10271451;28;96860;-65
2022/07/28 10:10:20;;;;;;;5.05;2.60;;;;;;;23.89;43.35;95734.25;10301478;28;97155;-65
2022/07/28 10:20:52;;;;;;;4.03;2.35;;;;;;;24.23;43.08;95726.22;10306035;28;96749;-65
2022/07/28 10:25:58;;;;;;;3.28;2.20;;;;;;;24.46;41.89;95727.84;10299763;28;96703;-65
2022/07/28 10:31:03;;;;;;;4.50;2.30;;;;;;;24.72;41.43;95726.28;10289042;28;96885;-65
2022/07/28 10:36:07;;;;;;;5.10;2.25;;;;;;;25.02;40.35;95715.13;10300509;28;97088;-65
2022/07/28 10:41:14;;;;;;;5.07;2.22;;;;;;;25.14;39.57;95711.53;10300266;28;96754;-65
2022/07/28 10:46:17;;;;;;;4.80;2.30;;;;;;;25.30;39.62;95713.25;10298669;28;97258;-65
2022/07/28 10:51:21;;;;;;;3.47;2.30;;;;;;;25.52;39.72;95707.84;10300285;28;97140;-65
2022/07/28 10:56:49;;;;;;;5.35;2.35;;;;;;;25.83;39.46;95700.06;10299654;28;97013;-65
2022/07/28 11:01:52;;;;;;;4.93;2.50;;;;;;;25.89;39.39;95693.66;10299876;28;96783;-65
2022/07/28 11:07:09;;;;;;;6.40;2.03;;;;;;;26.06;38.48;95688.16;10298101;28;96799;-65
2022/07/28 11:12:15;;;;;;;3.95;2.00;;;;;;;26.46;37.21;95683.28;10298890;28;96985;-65
2022/07/28 11:17:20;;;;;;;2.97;1.80;;;;;;;26.76;36.73;95687.94;10297767;28;96760;-66
2022/07/28 11:22:34;;;;;;;3.00;2.00;;;;;;;26.81;36.41;95674.53;10304420;28;97295;-66
2022/07/28 11:28:02;;;;;;;2.63;1.63;;;;;;;27.09;36.15;95678.66;10296149;28;97790;-65
2022/07/28 11:33:06;;;;;;;3.85;2.10;;;;;;;27.43;35.79;95663.94;10290470;28;97231;-66
2022/07/28 11:38:13;;;;;;;5.32;2.15;;;;;;;27.86;35.09;95659.09;10298409;28;96950;-66
2022/07/28 11:43:44;;;;;;;4.78;2.10;;;;;;;28.34;34.67;95672.13;10297917;28;96691;-65
2022/07/28 11:49:18;;;;;;;4.53;1.90;;;;;;;28.69;34.05;95663.09;10297100;28;97663;-66
2022/07/28 11:54:21;;;;;;;2.95;1.70;;;;;;;29.13;32.99;95664.19;10298092;28;97707;-66
2022/07/28 11:59:25;;;;;;;3.60;1.75;;;;;;;29.51;32.45;95651.00;10297416;28;98857;-66
2022/07/28 12:04:39;;;;;;;2.85;1.70;;;;;;;29.68;31.64;95656.78;10297132;28;96742;-66
2022/07/28 12:09:42;;;;;;;3.53;1.50;;;;;;;30.01;30.78;95651.59;10296807;28;97390;-66
2022/07/28 12:14:46;;;;;;;3.50;1.83;;;;;;;30.20;30.28;95651.69;10296875;28;97804;-66
2022/07/28 12:19:49;;;;;;;2.45;1.58;;;;;;;30.18;30.61;95653.06;10300727;28;97076;-66
2022/07/28 12:24:56;;;;;;;;;;;;;;;30.34;30.99;95645.59;10286113;28;97706;-66
2022/07/28 12:30:02;;;;;;;2.08;1.52;;;;;;;30.53;29.27;95642.94;10294017;28;97121;-66
2022/07/28 12:35:06;;;;;;;2.72;1.77;;;;;;;30.91;28.72;95642.97;10296523;28;96966;-66
2022/07/28 12:40:12;;;;;;;1.85;1.63;;;;;;;30.68;28.82;95643.53;10296406;28;97147;-66
2022/07/28 12:45:16;;;;;;;2.97;1.65;;;;;;;30.59;28.66;95631.00;10295915;28;97184;-66
2022/07/28 12:50:20;;;;;;;2.45;1.67;;;;;;;30.72;28.75;95638.38;10295629;28;96890;-66
2022/07/28 12:55:25;;;;;;;2.53;1.65;;;;;;;31.01;28.51;95646.31;10295665;28;97960;-66
2022/07/28 13:00:32;;;;;;;2.13;1.48;;;;;;;31.22;27.79;95624.44;10295323;28;96811;-66
2022/07/28 13:10:57;;;;;;;4.00;1.50;;;;;;;31.46;27.77;95627.03;10289444;28;97209;-66
2022/07/28 13:16:12;;;;;;;4.28;1.70;;;;;;;31.22;28.11;95622.56;10294975;28;97121;-66
2022/07/28 13:21:15;;;;;;;2.15;1.40;;;;;;;31.21;28.23;95625.53;10301140;28;98650;-66
2022/07/28 13:26:18;;;;;;;;;;;;;;;31.20;28.71;95635.50;10295423;28;96833;-66
2022/07/28 13:31:22;;;;;;;4.50;1.60;;;;;;;31.23;28.38;95634.13;10291205;28;98657;-66
2022/07/28 13:36:25;;;;;;;2.33;1.45;;;;;;;31.27;28.55;95628.94;10295205;28;96873;-66
2022/07/28 13:41:28;;;;;;;2.65;1.20;;;;;;;31.38;27.94;95625.00;10285642;28;97989;-66
2022/07/28 13:46:52;;;;;;;2.70;1.70;;;;;;;31.82;27.22;95631.81;10293845;28;97386;-66
2022/07/28 13:51:58;;;;;;;1.90;1.20;;;;;;;32.20;27.23;95620.03;10294196;28;98778;-66
2022/07/28 13:57:01;;;;;;;2.35;1.42;;;;;;;31.92;26.23;95634.31;10294511;28;96790;-66
2022/07/28 14:02:05;;;;;;;;;;;;;;;31.90;26.75;95641.09;10294796;28;97104;-67
2022/07/28 14:07:18;;;;;;;2.38;1.40;;;;;;;31.84;26.13;95645.81;10294098;28;96941;-66
2022/07/28 14:12:23;;;;;;;2.40;1.20;;;;;;;31.82;25.77;95639.91;10287638;28;96842;-66
2022/07/28 14:17:28;;;;;;;2.55;0.98;;;;;;;31.49;24.51;95648.03;10293637;28;97708;-66
2022/07/28 14:22:48;;;;;;;3.17;1.00;;;;;;;32.09;23.69;95632.94;10299801;28;96789;-66
2022/07/28 14:27:50;;;;;;;;;;;;;;;31.94;24.32;95628.66;10291745;28;96777;-66
2022/07/28 14:32:56;;;;;;;3.17;1.43;;;;;;;31.60;23.13;95633.25;10293713;28;96787;-66
2022/07/28 14:37:59;;;;;;;1.65;1.15;;;;;;;31.73;22.83;95630.91;10293609;28;96856;-66
2022/07/28 14:43:22;;;;;;;2.05;1.10;;;;;;;32.49;22.63;95634.06;10297795;28;96838;-66
2022/07/28 14:48:26;;;;;;;2.28;1.05;;;;;;;33.83;21.19;95629.03;10299438;28;96895;-66
2022/07/28 14:53:29;;;;;;;2.33;1.23;;;;;;;33.36;22.28;95636.72;10298746;28;97145;-66
2022/07/28 14:58:32;;;;;;;3.83;1.10;;;;;;;34.15;21.88;95627.13;10299434;28;97146;-67
2022/07/28 15:03:36;;;;;;;2.75;1.00;;;;;;;35.13;21.03;95627.78;10299080;28;97669;-66
2022/07/28 15:08:45;;;;;;;1.48;0.98;;;;;;;34.88;20.70;95629.34;10299242;28;97334;-67
2022/07/28 15:13:48;;;;;;;2.05;1.00;;;;;;;35.30;20.66;95635.13;10298207;28;97046;-67
2022/07/28 15:18:53;;;;;;;1.48;1.08;;;;;;;35.89;20.22;95622.84;10289928;28;96996;-67
2022/07/28 15:23:56;;;;;;;1.90;1.10;;;;;;;37.00;18.85;95631.84;10305082;28;96870;-67
2022/07/28 15:28:59;;;;;;;3.33;1.15;;;;;;;36.92;18.30;95640.88;10295943;28;96807;-67
2022/07/28 15:34:03;;;;;;;1.80;0.90;;;;;;;35.36;19.07;95637.66;10297661;28;96775;-67
2022/07/28 15:39:12;;;;;;;3.20;1.17;;;;;;;33.78;20.43;95637.31;10298211;28;96828;-67
2022/07/28 15:44:16;;;;;;;2.40;1.10;;;;;;;32.70;20.97;95631.72;10295202;28;98721;-66
2022/07/28 15:49:29;;;;;;;1.23;1.00;;;;;;;32.61;20.74;95644.34;10295330;28;97791;-66
2022/07/28 15:54:31;;;;;;;2.20;0.93;;;;;;;35.87;18.03;95630.53;10294647;28;97003;-67
2022/07/28 15:59:34;;;;;;;0.90;0.70;;;;;;;37.74;16.88;95641.16;10302292;28;96881;-67
2022/07/28 16:04:53;;;;;;;1.20;0.70;;;;;;;38.03;15.92;95650.28;10299110;28;96784;-67
2022/07/28 16:09:56;;;;;;;1.67;0.98;;;;;;;36.15;16.28;95660.00;10294709;28;97047;-67
2022/07/28 16:14:59;;;;;;;1.20;0.80;;;;;;;35.32;17.01;95642.94;10295325;28;97154;-68
2022/07/28 16:20:04;;;;;;;2.25;0.93;;;;;;;35.90;15.70;95635.34;10296761;28;96750;-67
2022/07/28 16:25:15;;;;;;;1.02;0.90;;;;;;;37.02;14.88;95640.50;10297894;28;96690;-67
2022/07/28 16:30:19;;;;;;;2.75;1.02;;;;;;;36.95;15.18;95645.66;10298259;28;96803;-67
2022/07/28 16:35:23;;;;;;;1.10;0.70;;;;;;;36.43;16.46;95642.16;10299642;28;98787;-66
2022/07/28 16:40:26;;;;;;;1.13;0.90;;;;;;;36.07;16.41;95643.41;10295817;28;97037;-67
2022/07/28 16:45:30;;;;;;;5.18;3.63;;;;;;;37.60;15.39;95648.00;10299980;28;96856;-65
2022/07/28 16:50:34;;;;;;;3.25;2.15;;;;;;;38.35;15.04;95644.31;10298723;28;97714;-70
2022/07/28 16:55:37;;;;;;;1.73;1.00;;;;;;;38.24;15.27;95654.88;10295870;28;96860;-67
2022/07/28 17:00:40;;;;;;;1.33;0.90;;;;;;;39.41;14.80;95656.84;10296811;28;96787;-67
2022/07/28 17:05:44;;;;;;;1.75;0.90;;;;;;;40.25;14.22;95655.13;10297092;28;98363;-67
2022/07/28 17:10:47;;;;;;;0.90;0.60;;;;;;;40.87;14.32;95662.84;10297214;28;98642;-67
2022/07/28 17:15:50;;;;;;;2.00;0.75;;;;;;;40.92;14.30;95663.38;10297786;28;96922;-67
2022/07/28 17:20:54;;;;;;;5.32;4.82;;;;;;;40.27;14.69;95666.56;10307481;28;98196;-67
2022/07/28 17:25:57;;;;;;;4.72;4.22;;;;;;;39.09;15.94;95668.78;10303429;28;96761;-67
2022/07/28 17:31:20;;;;;;;3.03;1.00;;;;;;;38.28;16.33;95662.03;10293312;28;96765;-67
2022/07/28 17:36:25;;;;;;;4.43;1.48;;;;;;;38.34;16.30;95670.00;10294559;28;96930;-66
2022/07/28 17:41:27;;;;;;;3.15;2.28;;;;;;;38.39;16.53;95673.28;10294430;28;96963;-67
2022/07/28 17:46:31;;;;;;;6.03;4.35;;;;;;;37.79;17.20;95688.41;10297937;28;97022;-66
2022/07/28 17:51:37;;;;;;;2.50;1.00;;;;;;;36.86;17.68;95691.22;10294431;28;96750;-66
2022/07/28 17:56:40;;;;;;;2.08;1.15;;;;;;;36.84;18.59;95698.94;10294504;28;96829;-67
2022/07/28 18:01:43;;;;;;;1.45;1.00;;;;;;;36.67;18.53;95706.03;10293999;28;99332;-66
2022/07/28 18:06:48;;;;;;;1.95;1.05;;;;;;;35.50;19.01;95715.13;10295672;28;97949;-67
2022/07/28 18:11:51;;;;;;;2.00;1.02;;;;;;;34.46;19.64;95702.19;10294956;28;96995;-67
2022/07/28 18:17:00;;;;;;;1.80;1.13;;;;;;;33.06;20.79;95711.28;10298538;28;98745;-66
2022/07/28 18:22:04;;;;;;;3.05;1.02;;;;;;;32.15;22.20;95712.81;10306675;28;96749;-67
2022/07/28 18:27:07;;;;;;;2.13;1.30;;;;;;;31.38;22.78;95719.47;10299609;28;96969;-69
2022/07/28 18:32:11;;;;;;;3.97;2.90;;;;;;;30.83;23.25;95723.44;10306243;28;97417;-65
2022/07/28 18:37:15;;;;;;;5.85;1.83;;;;;;;30.35;24.00;95730.72;10300460;28;97010;-64
2022/07/28 18:42:18;;;;;;;5.93;1.58;;;;;;;29.88;24.54;95730.34;10300526;28;96900;-66
2022/07/28 18:47:20;;;;;;;4.50;1.30;;;;;;;29.44;25.06;95740.09;10300686;28;96829;-66
2022/07/28 18:52:25;;;;;;;9.10;7.70;;;;;;;29.05;25.66;95745.47;10309373;28;98815;-67
2022/07/28 18:57:28;;;;;;;1.73;1.35;;;;;;;28.55;26.37;95756.94;10298242;28;96976;-65
2022/07/28 19:02:31;;;;;;;2.85;1.90;;;;;;;28.15;26.89;95749.75;10298911;28;97133;-66
2022/07/28 19:07:35;;;;;;;1.73;1.40;;;;;;;27.73;27.52;95746.31;10298943;28;96736;-66
2022/07/28 19:12:38;;;;;;;2.05;1.25;;;;;;;27.49;27.84;95762.09;10301486;28;98238;-66
2022/07/28 19:17:41;;;;;;;2.13;1.27;;;;;;;27.25;28.27;95759.13;10299533;28;97732;-66
2022/07/28 19:22:45;;;;;;;5.57;1.30;;;;;;;27.06;28.23;95764.97;10304528;28;96904;-66
2022/07/28 19:27:48;;;;;;;2.92;1.40;;;;;;;26.96;28.34;95773.00;10296951;28;97965;-66
2022/07/28 19:32:51;;;;;;;3.67;1.33;;;;;;;26.90;28.36;95779.34;10298584;28;96870;-66
2022/07/28 19:37:58;;;;;;;2.83;1.45;;;;;;;26.84;28.70;95775.84;10298406;28;96704;-66
2022/07/28 19:43:01;;;;;;;1.48;1.20;;;;;;;26.59;29.14;95779.25;10297991;28;97030;-66
2022/07/28 19:48:06;;;;;;;3.40;1.33;;;;;;;26.47;29.07;95787.50;10297384;28;96742;-66
2022/07/28 19:53:10;;;;;;;2.42;1.30;;;;;;;26.31;29.72;95775.06;10297688;28;96779;-66
2022/07/28 19:58:16;;;;;;;2.33;1.33;;;;;;;26.09;30.11;95780.53;10297247;28;96761;-66
2022/07/28 20:03:20;;;;;;;2.53;1.38;;;;;;;25.91;30.20;95774.53;10297140;28;99135;-65
2022/07/28 20:08:44;;;;;;;3.10;1.50;;;;;;;25.81;30.65;95779.78;10296857;28;96823;-66
2022/07/28 20:13:48;;;;;;;2.55;1.77;;;;;;;25.74;30.67;95795.25;10296979;28;98272;-66
2022/07/28 20:18:51;;;;;;;2.55;1.75;;;;;;;25.65;30.75;95802.13;10296881;28;96763;-66
2022/07/28 20:23:56;;;;;;;2.20;1.40;;;;;;;25.53;31.10;95812.94;10292123;28;97053;-66
2022/07/28 20:29:00;;;;;;;2.05;1.50;;;;;;;25.40;31.75;95816.84;10299172;28;96823;-66
2022/07/28 20:34:05;;;;;;;2.78;1.45;;;;;;;25.15;32.79;95825.41;10296368;28;96892;-66
2022/07/28 20:39:09;;;;;;;2.05;1.42;;;;;;;24.83;33.21;95834.88;10300173;28;96742;-66
2022/07/28 20:44:32;;;;;;;3.55;2.67;;;;;;;24.26;34.14;95835.13;10298001;28;97044;-66
2022/07/28 20:49:35;;;;;;;2.37;1.60;;;;;;;24.00;34.61;95837.41;10296082;28;96939;-67
2022/07/28 20:54:39;;;;;;;3.03;1.50;;;;;;;23.91;34.55;95837.00;10289516;28;97580;-66
2022/07/28 20:59:43;;;;;;;2.25;1.50;;;;;;;23.75;35.01;95851.13;10296288;28;96998;-66
2022/07/28 21:04:46;;;;;;;6.83;2.80;;;;;;;23.69;35.17;95852.88;10294172;28;97433;-66
2022/07/28 21:09:53;;;;;;;2.08;1.60;;;;;;;23.77;35.23;95853.53;10291400;28;97604;-66
2022/07/28 21:14:57;;;;;;;4.13;2.10;;;;;;;23.74;35.77;95838.81;10314980;28;97167;-66
2022/07/28 21:20:00;;;;;;;3.78;1.65;;;;;;;23.47;35.46;95846.63;10296126;28;96873;-66
2022/07/28 21:25:07;;;;;;;6.85;1.70;;;;;;;23.31;35.59;95851.66;10304135;28;98119;-65
2022/07/28 21:30:11;;;;;;;7.20;6.15;;;;;;;23.30;35.83;95858.03;10302663;28;98661;-65
2022/07/28 21:35:14;;;;;;;;;;;;;;;23.00;35.97;95859.03;10281859;28;97167;-66
2022/07/28 21:40:18;;;;;;;4.70;2.63;;;;;;;22.90;37.00;95858.00;10290538;28;97026;-65
2022/07/28 21:45:21;;;;;;;;;;;;;;;22.63;36.64;95856.66;10287729;28;97280;-65
2022/07/28 21:50:24;;;;;;;4.47;3.25;;;;;;;22.11;38.54;95859.19;10300471;28;97401;-64
2022/07/28 21:55:28;;;;;;;5.18;2.35;;;;;;;22.12;38.44;95858.13;10301432;28;97671;-66
2022/07/28 22:00:31;;;;;;;2.60;1.75;;;;;;;22.18;38.89;95865.19;10301828;28;98446;-66
2022/07/28 22:05:34;;;;;;;2.42;1.85;;;;;;;22.07;39.48;95860.66;10303423;28;97189;-65
2022/07/28 22:10:38;;;;;;;3.47;1.60;;;;;;;21.99;40.13;95859.16;10303393;28;97209;-65
2022/07/28 22:15:41;;;;;;;3.33;2.00;;;;;;;21.95;40.19;95865.16;10299458;28;97194;-65
2022/07/28 22:20:44;;;;;;;4.55;2.10;;;;;;;21.81;40.62;95869.88;10297104;28;97798;-66
2022/07/28 22:25:48;;;;;;;3.25;1.80;;;;;;;21.56;40.84;95867.34;10306685;28;98002;-65
2022/07/28 22:30:52;;;;;;;3.85;1.90;;;;;;;21.35;41.19;95866.81;10303920;28;96925;-65
2022/07/28 22:35:55;;;;;;;2.05;1.65;;;;;;;21.35;40.81;95869.47;10309606;28;96793;-66
2022/07/28 22:41:00;;;;;;;1.85;1.40;;;;;;;21.17;40.69;95864.97;10304128;28;96899;-65
2022/07/28 22:46:02;;;;;;;;;;;;;;;21.04;40.65;95868.59;10300462;28;97169;-66
2022/07/28 22:51:09;;;;;;;3.38;2.08;;;;;;;20.96;41.13;95860.94;10313525;28;98151;-65
2022/07/28 23:02:12;;;;;;;5.25;1.90;;;;;;;21.06;41.88;95869.19;10310454;28;96805;-65
2022/07/28 23:07:15;;;;;;;4.63;1.42;;;;;;;21.00;41.44;95867.44;10313207;28;96775;-65
2022/07/28 23:12:20;;;;;;;2.80;1.30;;;;;;;20.89;42.08;95868.16;10310674;28;97915;-65
2022/07/28 23:17:24;;;;;;;3.58;1.70;;;;;;;20.74;41.58;95866.69;10302133;28;97373;-65
2022/07/28 23:22:28;;;;;;;3.42;1.70;;;;;;;20.66;42.58;95869.59;10300545;28;97095;-66
2022/07/28 23:27:30;;;;;;;2.63;1.67;;;;;;;20.63;42.11;95871.91;10305182;28;97130;-65
2022/07/28 23:32:35;;;;;;;3.10;1.60;;;;;;;20.48;42.18;95873.06;10296089;28;96846;-65
2022/07/28 23:37:38;;;;;;;3.10;1.38;;;;;;;20.34;42.47;95880.34;10298016;28;96673;-65
2022/07/28 23:42:41;;;;;;;2.70;1.55;;;;;;;20.46;42.04;95869.00;10297868;28;96967;-65
2022/07/28 23:47:45;;;;;;;4.90;1.65;;;;;;;20.38;42.15;95884.16;10297271;28;97693;-65
2022/07/28 23:52:48;;;;;;;2.38;1.38;;;;;;;20.28;42.84;95883.03;10296239;28;97224;-65
2022/07/28 23:57:51;;;;;;;3.55;1.40;;;;;;;20.10;42.79;95883.81;10295378;28;96786;-65
